sensor_id;sensor_type;location;lat;lon;timestamp;P1;durP1;ratioP1;P2;durP2;ratioP2
19032;SDS011;9649;51.042;13.804;2023-03-03T00:03:19;76.93;;;28.73;;
19032;SDS011;9649;51.042;13.804;2023-03-03T00:08:23;72.00;;;29.60;;
19032;SDS011;9649;51.042;13.804;2023-03-03T00:13:29;66.10;;;28.47;;
19032;SDS011;9649;51.042;13.804;2023-03-03T00:18:32;75.47;;;28.33;;
19032;SDS011;9649;51.042;13.804;2023-03-03T00:23:38;78.90;;;29.60;;
19032;SDS011;9649;51.042;13.804;2023-03-03T00:28:44;80.00;;;30.67;;
19032;SDS011;9649;51.042;13.804;2023-03-03T00:33:48;86.43;;;31.67;;
19032;SDS011;9649;51.042;13.804;2023-03-03T00:38:55;72.80;;;31.37;;
19032;SDS011;9649;51.042;13.804;2023-03-03T00:44:27;68.70;;;28.53;;
19032;SDS011;9649;51.042;13.804;2023-03-03T00:49:34;72.43;;;29.83;;
19032;SDS011;9649;51.042;13.804;2023-03-03T00:54:38;68.70;;;29.73;;
19032;SDS011;9649;51.042;13.804;2023-03-03T00:59:42;79.07;;;29.80;;
19032;SDS011;9649;51.042;13.804;2023-03-03T01:04:47;73.23;;;29.90;;
19032;SDS011;9649;51.042;13.804;2023-03-03T01:09:52;76.63;;;30.67;;
19032;SDS011;9649;51.042;13.804;2023-03-03T01:14:56;65.80;;;28.77;;
19032;SDS011;9649;51.042;13.804;2023-03-03T01:19:59;63.23;;;29.00;;
19032;SDS011;9649;51.042;13.804;2023-03-03T01:25:01;60.50;;;27.20;;
19032;SDS011;9649;51.042;13.804;2023-03-03T01:30:06;66.60;;;27.87;;
19032;SDS011;9649;51.042;13.804;2023-03-03T01:35:10;68.70;;;29.17;;
19032;SDS011;9649;51.042;13.804;2023-03-03T01:40:15;65.87;;;28.47;;
19032;SDS011;9649;51.042;13.804;2023-03-03T01:45:21;66.17;;;28.00;;
19032;SDS011;9649;51.042;13.804;2023-03-03T01:50:27;61.03;;;28.47;;
19032;SDS011;9649;51.042;13.804;2023-03-03T01:55:38;66.20;;;27.93;;
19032;SDS011;9649;51.042;13.804;2023-03-03T02:00:44;62.80;;;26.23;;
19032;SDS011;9649;51.042;13.804;2023-03-03T02:05:51;62.40;;;28.20;;
19032;SDS011;9649;51.042;13.804;2023-03-03T02:10:56;62.87;;;25.70;;
19032;SDS011;9649;51.042;13.804;2023-03-03T02:16:00;68.00;;;27.53;;
19032;SDS011;9649;51.042;13.804;2023-03-03T02:21:04;68.23;;;28.10;;
19032;SDS011;9649;51.042;13.804;2023-03-03T02:26:13;67.40;;;29.37;;
19032;SDS011;9649;51.042;13.804;2023-03-03T02:31:18;119.17;;;31.77;;
19032;SDS011;9649;51.042;13.804;2023-03-03T02:36:24;67.80;;;27.33;;
19032;SDS011;9649;51.042;13.804;2023-03-03T02:41:31;81.20;;;29.27;;
19032;SDS011;9649;51.042;13.804;2023-03-03T02:46:37;73.40;;;28.43;;
19032;SDS011;9649;51.042;13.804;2023-03-03T02:51:42;72.67;;;28.93;;
19032;SDS011;9649;51.042;13.804;2023-03-03T02:56:46;70.40;;;30.20;;
19032;SDS011;9649;51.042;13.804;2023-03-03T03:01:50;70.73;;;28.63;;
19032;SDS011;9649;51.042;13.804;2023-03-03T03:06:53;64.57;;;26.33;;
19032;SDS011;9649;51.042;13.804;2023-03-03T03:11:58;69.77;;;26.77;;
19032;SDS011;9649;51.042;13.804;2023-03-03T03:17:02;69.57;;;27.40;;
19032;SDS011;9649;51.042;13.804;2023-03-03T03:22:05;65.63;;;26.17;;
19032;SDS011;9649;51.042;13.804;2023-03-03T03:27:09;69.97;;;26.83;;
19032;SDS011;9649;51.042;13.804;2023-03-03T03:32:12;61.23;;;25.23;;
19032;SDS011;9649;51.042;13.804;2023-03-03T03:37:15;63.87;;;25.17;;
19032;SDS011;9649;51.042;13.804;2023-03-03T03:42:21;63.03;;;25.00;;
19032;SDS011;9649;51.042;13.804;2023-03-03T03:47:24;64.07;;;25.13;;
19032;SDS011;9649;51.042;13.804;2023-03-03T03:52:26;67.43;;;26.03;;
19032;SDS011;9649;51.042;13.804;2023-03-03T03:57:30;62.50;;;25.03;;
19032;SDS011;9649;51.042;13.804;2023-03-03T04:02:33;59.17;;;24.20;;
19032;SDS011;9649;51.042;13.804;2023-03-03T04:07:36;77.67;;;26.27;;
19032;SDS011;9649;51.042;13.804;2023-03-03T04:12:40;61.33;;;24.43;;
19032;SDS011;9649;51.042;13.804;2023-03-03T04:17:43;54.40;;;23.53;;
19032;SDS011;9649;51.042;13.804;2023-03-03T04:22:46;57.10;;;22.90;;
19032;SDS011;9649;51.042;13.804;2023-03-03T04:27:50;56.77;;;23.20;;
19032;SDS011;9649;51.042;13.804;2023-03-03T04:32:54;58.67;;;23.80;;
19032;SDS011;9649;51.042;13.804;2023-03-03T04:37:57;60.87;;;22.43;;
19032;SDS011;9649;51.042;13.804;2023-03-03T04:43:01;55.47;;;22.03;;
19032;SDS011;9649;51.042;13.804;2023-03-03T04:48:04;56.77;;;21.53;;
19032;SDS011;9649;51.042;13.804;2023-03-03T04:53:07;49.27;;;20.90;;
19032;SDS011;9649;51.042;13.804;2023-03-03T04:58:11;52.00;;;20.13;;
19032;SDS011;9649;51.042;13.804;2023-03-03T05:03:14;51.40;;;20.17;;
19032;SDS011;9649;51.042;13.804;2023-03-03T05:08:17;42.10;;;19.30;;
19032;SDS011;9649;51.042;13.804;2023-03-03T05:13:21;46.13;;;19.50;;
19032;SDS011;9649;51.042;13.804;2023-03-03T05:18:24;45.53;;;19.83;;
19032;SDS011;9649;51.042;13.804;2023-03-03T05:23:27;47.97;;;19.07;;
19032;SDS011;9649;51.042;13.804;2023-03-03T05:28:32;50.23;;;20.43;;
19032;SDS011;9649;51.042;13.804;2023-03-03T05:33:35;54.13;;;20.27;;
19032;SDS011;9649;51.042;13.804;2023-03-03T05:38:38;61.30;;;21.93;;
19032;SDS011;9649;51.042;13.804;2023-03-03T05:43:42;54.80;;;20.30;;
19032;SDS011;9649;51.042;13.804;2023-03-03T05:48:45;60.53;;;21.30;;
19032;SDS011;9649;51.042;13.804;2023-03-03T05:53:48;57.13;;;21.13;;
19032;SDS011;9649;51.042;13.804;2023-03-03T05:58:52;65.50;;;21.13;;
19032;SDS011;9649;51.042;13.804;2023-03-03T06:03:55;58.00;;;20.43;;
19032;SDS011;9649;51.042;13.804;2023-03-03T06:08:57;66.93;;;21.40;;
19032;SDS011;9649;51.042;13.804;2023-03-03T06:14:01;60.47;;;21.27;;
19032;SDS011;9649;51.042;13.804;2023-03-03T06:19:04;61.83;;;22.10;;
19032;SDS011;9649;51.042;13.804;2023-03-03T06:24:07;71.83;;;22.57;;
19032;SDS011;9649;51.042;13.804;2023-03-03T06:29:11;62.63;;;21.17;;
19032;SDS011;9649;51.042;13.804;2023-03-03T06:34:16;62.87;;;23.33;;
19032;SDS011;9649;51.042;13.804;2023-03-03T06:39:18;61.10;;;22.67;;
19032;SDS011;9649;51.042;13.804;2023-03-03T06:44:22;60.00;;;20.40;;
19032;SDS011;9649;51.042;13.804;2023-03-03T06:49:28;67.73;;;23.83;;
19032;SDS011;9649;51.042;13.804;2023-03-03T06:54:34;59.70;;;20.33;;
19032;SDS011;9649;51.042;13.804;2023-03-03T06:59:38;70.27;;;23.07;;
19032;SDS011;9649;51.042;13.804;2023-03-03T07:04:42;59.70;;;23.00;;
19032;SDS011;9649;51.042;13.804;2023-03-03T07:09:46;63.33;;;22.30;;
19032;SDS011;9649;51.042;13.804;2023-03-03T07:14:52;60.63;;;21.77;;
19032;SDS011;9649;51.042;13.804;2023-03-03T07:20:04;56.33;;;21.40;;
19032;SDS011;9649;51.042;13.804;2023-03-03T07:25:20;54.30;;;19.20;;
19032;SDS011;9649;51.042;13.804;2023-03-03T07:30:34;50.93;;;19.50;;
19032;SDS011;9649;51.042;13.804;2023-03-03T07:35:37;45.93;;;18.60;;
19032;SDS011;9649;51.042;13.804;2023-03-03T07:40:45;48.60;;;18.80;;
19032;SDS011;9649;51.042;13.804;2023-03-03T07:45:51;44.43;;;19.13;;
19032;SDS011;9649;51.042;13.804;2023-03-03T07:51:03;46.53;;;18.43;;
19032;SDS011;9649;51.042;13.804;2023-03-03T07:56:14;48.13;;;18.03;;
19032;SDS011;9649;51.042;13.804;2023-03-03T08:01:30;48.97;;;17.93;;
19032;SDS011;9649;51.042;13.804;2023-03-03T08:06:41;49.93;;;18.47;;
19032;SDS011;9649;51.042;13.804;2023-03-03T08:11:50;46.80;;;18.33;;
19032;SDS011;9649;51.042;13.804;2023-03-03T08:16:57;45.30;;;17.70;;
19032;SDS011;9649;51.042;13.804;2023-03-03T08:22:05;41.00;;;16.90;;
19032;SDS011;9649;51.042;13.804;2023-03-03T08:27:14;44.77;;;16.43;;
19032;SDS011;9649;51.042;13.804;2023-03-03T08:32:18;35.27;;;13.63;;
19032;SDS011;9649;51.042;13.804;2023-03-03T08:37:21;36.00;;;14.70;;
19032;SDS011;9649;51.042;13.804;2023-03-03T08:42:24;35.23;;;14.80;;
19032;SDS011;9649;51.042;13.804;2023-03-03T08:47:28;34.57;;;14.97;;
19032;SDS011;9649;51.042;13.804;2023-03-03T08:52:31;33.57;;;13.43;;
19032;SDS011;9649;51.042;13.804;2023-03-03T08:57:34;30.23;;;12.87;;
19032;SDS011;9649;51.042;13.804;2023-03-03T09:02:38;25.30;;;12.37;;
19032;SDS011;9649;51.042;13.804;2023-03-03T09:07:42;28.67;;;12.40;;
19032;SDS011;9649;51.042;13.804;2023-03-03T09:12:48;25.17;;;11.47;;
19032;SDS011;9649;51.042;13.804;2023-03-03T09:17:52;26.93;;;11.53;;
19032;SDS011;9649;51.042;13.804;2023-03-03T09:22:55;26.17;;;11.60;;
19032;SDS011;9649;51.042;13.804;2023-03-03T09:27:58;21.40;;;10.10;;
19032;SDS011;9649;51.042;13.804;2023-03-03T09:33:04;20.23;;;10.17;;
19032;SDS011;9649;51.042;13.804;2023-03-03T09:38:24;20.13;;;10.10;;
19032;SDS011;9649;51.042;13.804;2023-03-03T09:43:30;27.03;;;10.60;;
19032;SDS011;9649;51.042;13.804;2023-03-03T09:48:43;21.00;;;9.63;;
19032;SDS011;9649;51.042;13.804;2023-03-03T09:54:06;20.10;;;8.83;;
19032;SDS011;9649;51.042;13.804;2023-03-03T09:59:22;17.10;;;8.53;;
19032;SDS011;9649;51.042;13.804;2023-03-03T10:04:40;18.30;;;8.40;;
19032;SDS011;9649;51.042;13.804;2023-03-03T10:09:54;15.73;;;7.43;;
19032;SDS011;9649;51.042;13.804;2023-03-03T10:15:13;18.73;;;7.57;;
19032;SDS011;9649;51.042;13.804;2023-03-03T10:20:34;15.23;;;7.47;;
19032;SDS011;9649;51.042;13.804;2023-03-03T10:25:52;15.00;;;7.30;;
19032;SDS011;9649;51.042;13.804;2023-03-03T10:31:06;16.87;;;7.67;;
19032;SDS011;9649;51.042;13.804;2023-03-03T10:36:26;14.00;;;6.83;;
19032;SDS011;9649;51.042;13.804;2023-03-03T10:41:40;11.87;;;6.27;;
19032;SDS011;9649;51.042;13.804;2023-03-03T10:46:53;12.33;;;6.13;;
19032;SDS011;9649;51.042;13.804;2023-03-03T10:52:13;13.03;;;6.43;;
19032;SDS011;9649;51.042;13.804;2023-03-03T10:57:29;14.07;;;7.00;;
19032;SDS011;9649;51.042;13.804;2023-03-03T11:02:37;14.77;;;7.63;;
19032;SDS011;9649;51.042;13.804;2023-03-03T11:07:49;13.53;;;7.07;;
19032;SDS011;9649;51.042;13.804;2023-03-03T11:13:00;11.33;;;5.97;;
19032;SDS011;9649;51.042;13.804;2023-03-03T11:18:22;12.33;;;6.57;;
19032;SDS011;9649;51.042;13.804;2023-03-03T11:23:40;10.73;;;5.90;;
19032;SDS011;9649;51.042;13.804;2023-03-03T11:34:23;10.63;;;5.67;;
19032;SDS011;9649;51.042;13.804;2023-03-03T11:39:43;10.77;;;5.93;;
19032;SDS011;9649;51.042;13.804;2023-03-03T11:44:46;11.13;;;5.70;;
19032;SDS011;9649;51.042;13.804;2023-03-03T11:49:53;11.00;;;6.33;;
19032;SDS011;9649;51.042;13.804;2023-03-03T11:55:04;12.20;;;5.50;;
19032;SDS011;9649;51.042;13.804;2023-03-03T12:00:26;13.53;;;6.50;;
19032;SDS011;9649;51.042;13.804;2023-03-03T12:05:36;10.97;;;6.10;;
19032;SDS011;9649;51.042;13.804;2023-03-03T12:10:47;10.80;;;5.93;;
19032;SDS011;9649;51.042;13.804;2023-03-03T12:15:58;11.83;;;6.20;;
19032;SDS011;9649;51.042;13.804;2023-03-03T12:21:12;11.00;;;5.80;;
19032;SDS011;9649;51.042;13.804;2023-03-03T12:26:31;9.33;;;5.17;;
19032;SDS011;9649;51.042;13.804;2023-03-03T12:31:44;9.80;;;5.40;;
19032;SDS011;9649;51.042;13.804;2023-03-03T12:36:58;10.00;;;4.77;;
19032;SDS011;9649;51.042;13.804;2023-03-03T12:42:11;9.23;;;4.50;;
19032;SDS011;9649;51.042;13.804;2023-03-03T12:47:21;7.23;;;4.40;;
19032;SDS011;9649;51.042;13.804;2023-03-03T12:52:31;7.77;;;4.20;;
19032;SDS011;9649;51.042;13.804;2023-03-03T12:57:44;6.97;;;4.27;;
19032;SDS011;9649;51.042;13.804;2023-03-03T13:02:56;7.17;;;3.70;;
19032;SDS011;9649;51.042;13.804;2023-03-03T13:08:09;8.20;;;3.60;;
19032;SDS011;9649;51.042;13.804;2023-03-03T13:13:33;8.23;;;3.90;;
19032;SDS011;9649;51.042;13.804;2023-03-03T13:18:45;8.30;;;4.00;;
19032;SDS011;9649;51.042;13.804;2023-03-03T13:23:53;8.30;;;4.03;;
19032;SDS011;9649;51.042;13.804;2023-03-03T13:29:07;8.30;;;4.57;;
19032;SDS011;9649;51.042;13.804;2023-03-03T13:34:19;9.90;;;4.97;;
19032;SDS011;9649;51.042;13.804;2023-03-03T13:39:27;9.50;;;4.80;;
19032;SDS011;9649;51.042;13.804;2023-03-03T13:44:37;11.80;;;6.57;;
19032;SDS011;9649;51.042;13.804;2023-03-03T13:49:44;9.93;;;5.47;;
19032;SDS011;9649;51.042;13.804;2023-03-03T13:55:00;8.40;;;4.60;;
19032;SDS011;9649;51.042;13.804;2023-03-03T14:00:26;10.47;;;5.00;;
19032;SDS011;9649;51.042;13.804;2023-03-03T14:05:39;13.30;;;5.20;;
19032;SDS011;9649;51.042;13.804;2023-03-03T14:10:46;9.40;;;5.20;;
19032;SDS011;9649;51.042;13.804;2023-03-03T14:16:00;11.83;;;6.40;;
19032;SDS011;9649;51.042;13.804;2023-03-03T14:21:06;13.57;;;6.17;;
19032;SDS011;9649;51.042;13.804;2023-03-03T14:26:14;12.00;;;6.07;;
19032;SDS011;9649;51.042;13.804;2023-03-03T14:31:21;10.97;;;5.87;;
19032;SDS011;9649;51.042;13.804;2023-03-03T14:36:26;12.37;;;6.10;;
19032;SDS011;9649;51.042;13.804;2023-03-03T14:41:35;10.97;;;5.93;;
19032;SDS011;9649;51.042;13.804;2023-03-03T14:46:42;10.53;;;5.50;;
19032;SDS011;9649;51.042;13.804;2023-03-03T14:51:46;12.87;;;6.20;;
19032;SDS011;9649;51.042;13.804;2023-03-03T14:56:56;11.77;;;6.23;;
19032;SDS011;9649;51.042;13.804;2023-03-03T15:02:26;10.37;;;5.77;;
19032;SDS011;9649;51.042;13.804;2023-03-03T15:07:36;12.83;;;6.40;;
19032;SDS011;9649;51.042;13.804;2023-03-03T15:12:40;11.07;;;6.10;;
19032;SDS011;9649;51.042;13.804;2023-03-03T15:17:52;12.47;;;6.33;;
19032;SDS011;9649;51.042;13.804;2023-03-03T15:23:01;10.83;;;5.73;;
19032;SDS011;9649;51.042;13.804;2023-03-03T15:28:32;13.83;;;6.37;;
19032;SDS011;9649;51.042;13.804;2023-03-03T15:33:45;13.10;;;5.57;;
19032;SDS011;9649;51.042;13.804;2023-03-03T15:38:55;13.23;;;5.87;;
19032;SDS011;9649;51.042;13.804;2023-03-03T15:44:15;11.17;;;6.00;;
19032;SDS011;9649;51.042;13.804;2023-03-03T15:49:38;17.23;;;7.23;;
19032;SDS011;9649;51.042;13.804;2023-03-03T15:54:51;17.70;;;7.37;;
19032;SDS011;9649;51.042;13.804;2023-03-03T16:05:37;17.63;;;9.37;;
19032;SDS011;9649;51.042;13.804;2023-03-03T16:10:49;19.50;;;8.60;;
19032;SDS011;9649;51.042;13.804;2023-03-03T16:16:06;23.10;;;9.67;;
19032;SDS011;9649;51.042;13.804;2023-03-03T16:21:23;23.97;;;9.60;;
19032;SDS011;9649;51.042;13.804;2023-03-03T16:26:35;26.63;;;10.77;;
19032;SDS011;9649;51.042;13.804;2023-03-03T16:31:45;25.53;;;11.07;;
19032;SDS011;9649;51.042;13.804;2023-03-03T16:36:56;25.80;;;10.93;;
19032;SDS011;9649;51.042;13.804;2023-03-03T16:42:06;29.13;;;12.87;;
19032;SDS011;9649;51.042;13.804;2023-03-03T16:47:34;38.13;;;14.20;;
19032;SDS011;9649;51.042;13.804;2023-03-03T16:52:44;39.73;;;14.87;;
19032;SDS011;9649;51.042;13.804;2023-03-03T16:57:54;32.87;;;13.50;;
19032;SDS011;9649;51.042;13.804;2023-03-03T17:03:16;33.30;;;12.97;;
19032;SDS011;9649;51.042;13.804;2023-03-03T17:08:54;36.13;;;15.33;;
19032;SDS011;9649;51.042;13.804;2023-03-03T17:14:12;37.83;;;14.83;;
19032;SDS011;9649;51.042;13.804;2023-03-03T17:19:26;40.57;;;15.13;;
19032;SDS011;9649;51.042;13.804;2023-03-03T17:24:44;38.57;;;15.10;;
19032;SDS011;9649;51.042;13.804;2023-03-03T17:29:55;34.83;;;13.67;;
19032;SDS011;9649;51.042;13.804;2023-03-03T17:35:07;31.63;;;14.27;;
19032;SDS011;9649;51.042;13.804;2023-03-03T17:40:33;35.73;;;14.17;;
19032;SDS011;9649;51.042;13.804;2023-03-03T17:45:48;36.13;;;14.40;;
19032;SDS011;9649;51.042;13.804;2023-03-03T17:50:58;39.73;;;16.90;;
19032;SDS011;9649;51.042;13.804;2023-03-03T17:56:16;44.07;;;17.07;;
19032;SDS011;9649;51.042;13.804;2023-03-03T18:01:24;41.93;;;17.67;;
19032;SDS011;9649;51.042;13.804;2023-03-03T18:12:29;45.10;;;18.33;;
19032;SDS011;9649;51.042;13.804;2023-03-03T18:17:49;45.57;;;18.93;;
19032;SDS011;9649;51.042;13.804;2023-03-03T18:23:24;50.67;;;19.30;;
19032;SDS011;9649;51.042;13.804;2023-03-03T18:28:44;48.63;;;19.70;;
19032;SDS011;9649;51.042;13.804;2023-03-03T22:03:27;66.63;;;22.23;;
19032;SDS011;9649;51.042;13.804;2023-03-03T22:08:32;68.73;;;23.50;;
19032;SDS011;9649;51.042;13.804;2023-03-03T22:13:35;69.40;;;22.93;;
19032;SDS011;9649;51.042;13.804;2023-03-03T22:18:41;67.50;;;24.20;;
19032;SDS011;9649;51.042;13.804;2023-03-03T22:23:44;77.03;;;24.43;;
19032;SDS011;9649;51.042;13.804;2023-03-03T22:28:46;74.50;;;24.30;;
19032;SDS011;9649;51.042;13.804;2023-03-03T22:33:51;74.93;;;25.67;;
19032;SDS011;9649;51.042;13.804;2023-03-03T22:38:53;76.27;;;25.10;;
19032;SDS011;9649;51.042;13.804;2023-03-03T22:43:56;75.60;;;24.03;;
19032;SDS011;9649;51.042;13.804;2023-03-03T22:49:00;81.17;;;27.27;;
19032;SDS011;9649;51.042;13.804;2023-03-03T22:54:03;69.40;;;24.33;;
19032;SDS011;9649;51.042;13.804;2023-03-03T22:59:06;63.50;;;23.03;;
19032;SDS011;9649;51.042;13.804;2023-03-03T23:04:10;58.40;;;21.30;;
19032;SDS011;9649;51.042;13.804;2023-03-03T23:09:13;54.70;;;20.60;;
19032;SDS011;9649;51.042;13.804;2023-03-03T23:14:15;54.77;;;19.90;;
19032;SDS011;9649;51.042;13.804;2023-03-03T23:19:19;52.60;;;19.70;;
19032;SDS011;9649;51.042;13.804;2023-03-03T23:24:22;50.00;;;19.87;;
19032;SDS011;9649;51.042;13.804;2023-03-03T23:29:25;51.40;;;20.20;;
19032;SDS011;9649;51.042;13.804;2023-03-03T23:34:29;53.63;;;20.77;;
19032;SDS011;9649;51.042;13.804;2023-03-03T23:39:33;54.30;;;19.20;;
19032;SDS011;9649;51.042;13.804;2023-03-03T23:44:35;55.67;;;20.10;;
19032;SDS011;9649;51.042;13.804;2023-03-03T23:49:40;48.07;;;19.17;;
19032;SDS011;9649;51.042;13.804;2023-03-03T23:54:42;46.23;;;18.80;;
19032;SDS011;9649;51.042;13.804;2023-03-03T23:59:45;48.43;;;18.03;;
